Map

Track Data

SID SEASON NUMBER BASIN SUBBASIN NAME ISO_TIME NATURE LAT LON WMO_WIND WMO_PRES WMO_AGENCY TRACK_TYPE DIST2LAND LANDFALL IFLAG USA_AGENCY USA_ATCF_ID USA_LAT USA_LON USA_RECORD USA_STATUS USA_WIND USA_PRES USA_SSHS USA_R34_NE USA_R34_SE USA_R34_SW USA_R34_NW USA_R50_NE USA_R50_SE USA_R50_SW USA_R50_NW USA_R64_NE USA_R64_SE USA_R64_SW USA_R64_NW USA_POCI USA_ROCI USA_RMW USA_EYE TOKYO_LAT TOKYO_LON TOKYO_GRADE TOKYO_WIND TOKYO_PRES TOKYO_R50_DIR TOKYO_R50_LONG TOKYO_R50_SHORT TOKYO_R30_DIR TOKYO_R30_LONG TOKYO_R30_SHORT TOKYO_LAND CMA_LAT CMA_LON CMA_CAT CMA_WIND CMA_PRES HKO_LAT HKO_LON HKO_CAT HKO_WIND HKO_PRES NEWDELHI_LAT NEWDELHI_LON NEWDELHI_GRADE NEWDELHI_WIND NEWDELHI_PRES NEWDELHI_CI NEWDELHI_DP NEWDELHI_POCI REUNION_LAT REUNION_LON REUNION_TYPE REUNION_WIND REUNION_PRES REUNION_TNUM REUNION_CI REUNION_RMW REUNION_R34_NE REUNION_R34_SE REUNION_R34_SW REUNION_R34_NW REUNION_R50_NE REUNION_R50_SE REUNION_R50_SW REUNION_R50_NW REUNION_R64_NE REUNION_R64_SE REUNION_R64_SW REUNION_R64_NW BOM_LAT BOM_LON BOM_TYPE BOM_WIND BOM_PRES BOM_TNUM BOM_CI BOM_RMW BOM_R34_NE BOM_R34_SE BOM_R34_SW BOM_R34_NW BOM_R50_NE BOM_R50_SE BOM_R50_SW BOM_R50_NW BOM_R64_NE BOM_R64_SE BOM_R64_SW BOM_R64_NW BOM_ROCI BOM_POCI BOM_EYE BOM_POS_METHOD BOM_PRES_METHOD NADI_LAT NADI_LON NADI_CAT NADI_WIND NADI_PRES WELLINGTON_LAT WELLINGTON_LON WELLINGTON_WIND WELLINGTON_PRES DS824_LAT DS824_LON DS824_STAGE DS824_WIND DS824_PRES TD9636_LAT TD9636_LON TD9636_STAGE TD9636_WIND TD9636_PRES TD9635_LAT TD9635_LON TD9635_WIND TD9635_PRES TD9635_ROCI NEUMANN_LAT NEUMANN_LON NEUMANN_CLASS NEUMANN_WIND NEUMANN_PRES MLC_LAT MLC_LON MLC_CLASS MLC_WIND MLC_PRES USA_GUST BOM_GUST BOM_GUST_PER REUNION_GUST REUNION_GUST_PER USA_SEAHGT USA_SEARAD_NE USA_SEARAD_SE USA_SEARAD_SW USA_SEARAD_NW STORM_SPEED STORM_DIR
1938196N10147 1938 31 WP MM NOT_NAMED 1938-07-15 10:00:00 NR 9.80000 146.500 main 1333 1333 __________O___ -1 9.80000 146.500 7 10 291
1938196N10147 1938 31 WP MM NOT_NAMED 1938-07-15 12:00:00 NR 9.92042 146.178 main 1345 1345 __________P___ -1 9.92042 146.178 7 10 291
1938196N10147 1938 31 WP MM NOT_NAMED 1938-07-15 15:00:00 NR 10.0993 145.702 main 1370 1370 __________P___ -1 10.0993 145.702 7 10 291
1938196N10147 1938 31 WP MM NOT_NAMED 1938-07-15 18:00:00 NR 10.2747 145.249 main 1398 1398 __________P___ -1 10.2747 145.249 7 9 292
1938196N10147 1938 31 WP MM NOT_NAMED 1938-07-15 21:00:00 NR 10.4448 144.830 main 1414 1425 __________P___ -1 10.4448 144.830 7 9 293
1938196N10147 1938 31 WP MM NOT_NAMED 1938-07-15 22:00:00 NR 10.5000 144.700 main 1427 1427 __________O___ -1 10.5000 144.700 7 8 294
1938196N10147 1938 31 WP MM NOT_NAMED 1938-07-16 00:00:00 NR 10.6081 144.457 main 1441 1443 __________P___ -1 10.6081 144.457 7 8 295
1938196N10147 1938 31 WP MM NOT_NAMED 1938-07-16 03:00:00 NR 10.7641 144.125 main 1471 1471 __________P___ -1 10.7641 144.125 7 7 296
1938196N10147 1938 31 WP MM NOT_NAMED 1938-07-16 06:00:00 NR 10.9130 143.814 main 1489 1489 __________P___ -1 10.9130 143.814 7 7 296
1938196N10147 1938 31 WP MM NOT_NAMED 1938-07-16 09:00:00 NR 11.0545 143.505 main 1518 1518 __________P___ -1 11.0545 143.505 7 7 295
1938196N10147 1938 31 WP MM NOT_NAMED 1938-07-16 10:00:00 NR 11.1000 143.400 main 1520 1520 __________O___ -1 11.1000 143.400 7 6 297
1938196N10147 1938 31 WP MM NOT_NAMED 1938-07-16 12:00:00 NR 11.1882 143.232 main 1537 1533 __________P___ -1 11.1882 143.232 7 6 297
1938196N10147 1938 31 WP MM NOT_NAMED 1938-07-16 15:00:00 NR 11.3144 142.976 main 1539 1536 __________P___ -1 11.3144 142.976 7 6 294
1938196N10147 1938 31 WP MM NOT_NAMED 1938-07-16 18:00:00 NR 11.4367 142.653 main 1539 1535 __________P___ -1 11.4367 142.653 7 8 288
1938196N10147 1938 31 WP MM NOT_NAMED 1938-07-16 21:00:00 NR 11.5588 142.195 main 1543 1537 __________P___ -1 11.5588 142.195 7 10 284
1938196N10147 1938 31 WP MM NOT_NAMED 1938-07-16 22:00:00 NR 11.6000 142.000 main 1537 1528 __________O___ -1 11.6000 142.000 7 13 280
1938196N10147 1938 31 WP MM NOT_NAMED 1938-07-17 00:00:00 NR 11.6786 141.525 main 1531 1508 __________P___ -1 11.6786 141.525 7 16 279
1938196N10147 1938 31 WP MM NOT_NAMED 1938-07-17 03:00:00 NR 11.7959 140.667 main 1508 1482 __________P___ -1 11.7959 140.667 7 18 278
1938196N10147 1938 31 WP MM NOT_NAMED 1938-07-17 06:00:00 NR 11.9181 139.689 main 1482 1394 __________P___ -1 11.9181 139.689 7 20 277
1938196N10147 1938 31 WP MM NOT_NAMED 1938-07-17 09:00:00 NR 12.0517 138.650 main 1394 1372 __________P___ -1 12.0517 138.650 7 21 278
1938196N10147 1938 31 WP MM NOT_NAMED 1938-07-17 10:00:00 NR 12.1000 138.300 main 1362 1290 __________O___ -1 12.1000 138.300 7 21 279
1938196N10147 1938 31 WP MM NOT_NAMED 1938-07-17 12:00:00 NR 12.2087 137.582 main 1290 1176 __________P___ -1 12.2087 137.582 7 22 279
1938196N10147 1938 31 WP MM NOT_NAMED 1938-07-17 15:00:00 NR 12.3844 136.479 main 1176 1060 __________P___ -1 12.3844 136.479 7 21 280
1938196N10147 1938 31 WP MM NOT_NAMED 1938-07-17 18:00:00 NR 12.5656 135.415 main 1060 966 __________P___ -1 12.5656 135.415 7 20 280
1938196N10147 1938 31 WP MM NOT_NAMED 1938-07-17 21:00:00 NR 12.7431 134.473 main 966 936 __________P___ -1 12.7431 134.473 7 18 281
1938196N10147 1938 31 WP MM NOT_NAMED 1938-07-17 22:00:00 NR 12.8000 134.200 main 936 896 __________O___ -1 12.8000 134.200 7 14 283
1938196N10147 1938 31 WP MM NOT_NAMED 1938-07-18 00:00:00 NR 12.9065 133.763 main 896 838 __________P___ -1 12.9065 133.763 7 12 286
1938196N10147 1938 31 WP MM NOT_NAMED 1938-07-18 03:00:00 NR 13.0615 133.246 main 838 800 __________P___ -1 13.0615 133.246 7 10 289
1938196N10147 1938 31 WP MM NOT_NAMED 1938-07-18 06:00:00 NR 13.2109 132.829 main 800 760 __________P___ -1 13.2109 132.829 7 8 290
1938196N10147 1938 31 WP MM NOT_NAMED 1938-07-18 09:00:00 NR 13.3539 132.438 main 760 749 __________P___ -1 13.3539 132.438 7 8 290
1938196N10147 1938 31 WP MM NOT_NAMED 1938-07-18 10:00:00 NR 13.4000 132.300 main 749 709 __________O___ -1 13.4000 132.300 7 10 283
1938196N10147 1938 31 WP MM NOT_NAMED 1938-07-18 12:00:00 NR 13.4657 131.927 main 709 656 __________P___ -1 13.4657 131.927 7 11 280
1938196N10147 1938 31 WP MM NOT_NAMED 1938-07-18 15:00:00 NR 13.5574 131.355 main 658 598 __________P___ -1 13.5574 131.355 7 11 281
1938196N10147 1938 31 WP MM NOT_NAMED 1938-07-18 18:00:00 NR 13.6683 130.808 main 598 550 __________P___ -1 13.6683 130.808 7 10 285
1938196N10147 1938 31 WP MM NOT_NAMED 1938-07-18 21:00:00 NR 13.8296 130.334 main 550 543 __________P___ -1 13.8296 130.334 7 10 291
1938196N10147 1938 31 WP MM NOT_NAMED 1938-07-18 22:00:00 NR 13.9000 130.200 main 543 527 __________O___ -1 13.9000 130.200 7 8 306
1938196N10147 1938 31 WP MM NOT_NAMED 1938-07-19 00:00:00 NR 14.0736 129.987 main 531 516 __________P___ -1 14.0736 129.987 7 8 318
1938196N10147 1938 31 WP MM NOT_NAMED 1938-07-19 03:00:00 NR 14.3910 129.750 main 517 517 __________P___ -1 14.3910 129.750 7 8 330
1938196N10147 1938 31 WP MM NOT_NAMED 1938-07-19 06:00:00 NR 14.7602 129.580 main 530 521 __________P___ -1 14.7602 129.580 7 8 339
1938196N10147 1938 31 WP MM NOT_NAMED 1938-07-19 09:00:00 NR 15.1621 129.444 main 538 538 __________P___ -1 15.1621 129.444 7 9 342
1938196N10147 1938 31 WP MM NOT_NAMED 1938-07-19 10:00:00 NR 15.3000 129.400 main 545 545 __________O___ -1 15.3000 129.400 7 9 342
1938196N10147 1938 31 WP MM NOT_NAMED 1938-07-19 12:00:00 NR 15.5785 129.309 main 559 558 __________P___ -1 15.5785 129.309 7 9 342
1938196N10147 1938 31 WP MM NOT_NAMED 1938-07-19 15:00:00 NR 16.0010 129.163 main 566 557 __________P___ -1 16.0010 129.163 7 9 341
1938196N10147 1938 31 WP MM NOT_NAMED 1938-07-19 18:00:00 NR 16.4277 129.011 main 567 569 __________P___ -1 16.4277 129.011 7 9 341
1938196N10147 1938 31 WP MM NOT_NAMED 1938-07-19 21:00:00 NR 16.8568 128.853 main 587 579 __________P___ -1 16.8568 128.853 7 9 341
1938196N10147 1938 31 WP MM NOT_NAMED 1938-07-19 22:00:00 NR 17.0000 128.800 main 585 __________O___ -1 17.0000 128.800 7 9 339

Digital Typhoon Data and Search

About IBTrACS Database

This database is a web-friendly format of International Best Track Archive for Climate Stewardship (IBTrACS), a global best track data archive curated by NOAA dating back to 1842.

Updated: 2021-12-01